Time;durP1;ratioP1;P1;durP2;ratioP2;P2;SDS_P1;SDS_P2;PMS_P1;PMS_P2;Temp;Humidity;BMP_temperature;BMP_pressure;BME280_temperature;BME280_humidity;BME280_pressure;Samples;Min_cycle;Max_cycle;Signal;HPM_P1;HPM_P2
2023/01/22 00:01:01;;;;;;;54.67;24.47;;;;;;;1.44;100.00;101208.98;1726922;83;25571;-57
2023/01/22 00:03:30;;;;;;;60.92;25.57;;;;;;;1.44;100.00;101215.12;1727044;82;25516;-58
2023/01/22 00:05:57;;;;;;;63.45;25.50;;;;;;;1.42;100.00;101207.07;1710017;83;25414;-57
2023/01/22 00:08:24;;;;;;;69.05;25.60;;;;;;;1.43;100.00;101215.34;1726928;82;27333;-58
2023/01/22 00:10:56;;;;;;;60.58;25.50;;;;;;;1.41;100.00;101206.77;1726828;83;25592;-58
2023/01/22 00:13:26;;;;;;;66.55;24.98;;;;;;;1.39;100.00;101206.98;1726881;82;25547;-57
2023/01/22 00:15:58;;;;;;;58.23;27.25;;;;;;;1.39;100.00;101214.18;1726945;83;26165;-59
2023/01/22 00:18:26;;;;;;;70.57;25.02;;;;;;;1.36;100.00;101214.09;1727004;82;25445;-57
2023/01/22 00:20:55;;;;;;;58.28;24.82;;;;;;;1.37;100.00;101215.73;1726901;82;27222;-57
2023/01/22 00:23:24;;;;;;;62.10;24.77;;;;;;;1.36;100.00;101211.43;1726958;82;25707;-58
2023/01/22 00:26:05;;;;;;;64.60;24.02;;;;;;;1.36;100.00;101214.09;1727050;83;25401;-56
2023/01/22 00:28:33;;;;;;;57.98;24.05;;;;;;;1.33;100.00;101211.91;1727356;82;26245;-55
2023/01/22 00:31:03;;;;;;;56.92;23.52;;;;;;;1.33;100.00;101213.23;1726875;83;25576;-56
2023/01/22 00:33:32;;;;;;;56.95;22.93;;;;;;;1.33;100.00;101219.91;1726907;83;27989;-57
2023/01/22 00:36:09;;;;;;;56.28;23.10;;;;;;;1.32;100.00;101226.78;1726938;82;27140;-58
2023/01/22 00:38:37;;;;;;;52.73;21.87;;;;;;;1.33;100.00;101231.06;1726967;82;25567;-57
2023/01/22 00:41:07;;;;;;;49.38;22.20;;;;;;;1.30;100.00;101229.67;1727139;83;26212;-58
2023/01/22 00:43:39;;;;;;;52.45;21.93;;;;;;;1.28;100.00;101230.42;1726972;83;25391;-58
2023/01/22 00:46:10;;;;;;;44.65;20.50;;;;;;;1.27;100.00;101236.25;1730530;82;27390;-58
2023/01/22 00:48:36;;;;;;;47.83;20.02;;;;;;;1.25;100.00;101234.33;1760724;81;25460;-56
2023/01/22 00:51:07;;;;;;;51.45;21.42;;;;;;;1.23;100.00;101239.08;1724844;82;25553;-58
2023/01/22 00:53:36;;;;;;;48.25;20.85;;;;;;;1.21;100.00;101234.50;1724791;82;25737;-55
2023/01/22 00:56:06;;;;;;;52.70;19.98;;;;;;;1.19;100.00;101236.58;1725007;83;25410;-58
2023/01/22 00:58:34;;;;;;;48.33;19.90;;;;;;;1.19;100.00;101232.58;1712226;83;27383;-57
2023/01/22 01:01:03;;;;;;;47.08;20.60;;;;;;;1.20;100.00;101232.05;1712214;83;25796;-54
2023/01/22 01:03:33;;;;;;;40.95;19.10;;;;;;;1.19;100.00;101237.08;1725016;83;25399;-58
2023/01/22 01:06:10;;;;;;;46.90;18.75;;;;;;;1.18;100.00;101236.27;1724915;83;25732;-58
2023/01/22 01:08:41;;;;;;;46.88;18.10;;;;;;;1.18;100.00;101240.80;1723006;82;25752;-56
2023/01/22 01:11:12;;;;;;;40.80;18.92;;;;;;;1.15;100.00;101234.57;1724833;83;27372;-57
2023/01/22 01:13:41;;;;;;;40.85;17.95;;;;;;;1.16;100.00;101240.18;1724694;83;25641;-58
2023/01/22 01:16:16;;;;;;;39.00;17.57;;;;;;;1.15;100.00;101242.56;1724994;83;35119;-58
2023/01/22 01:18:45;;;;;;;38.92;18.50;;;;;;;1.15;100.00;101239.91;1724722;83;25605;-57
2023/01/22 01:21:13;;;;;;;42.73;18.97;;;;;;;1.13;100.00;101242.79;1725079;83;25589;-58
2023/01/22 01:23:41;;;;;;;45.78;18.05;;;;;;;1.11;100.00;101251.53;1724898;83;27352;-58
2023/01/22 01:26:13;;;;;;;39.58;17.60;;;;;;;1.08;100.00;101243.45;1724712;83;25712;-58
2023/01/22 01:28:44;;;;;;;44.80;19.37;;;;;;;1.10;100.00;101249.89;1724815;83;25377;-59
2023/01/22 01:31:15;;;;;;;45.10;19.70;;;;;;;1.09;100.00;101249.08;1724837;83;25715;-58
2023/01/22 01:33:43;;;;;;;40.98;19.23;;;;;;;1.10;100.00;101256.55;1724822;83;25580;-58
2023/01/22 01:36:17;;;;;;;42.17;22.93;;;;;;;1.09;100.00;101258.41;1724901;83;26637;-58
2023/01/22 01:38:46;;;;;;;44.18;18.65;;;;;;;1.09;100.00;101262.41;1724775;83;25557;-58
2023/01/22 01:41:19;;;;;;;38.33;16.80;;;;;;;1.11;100.00;101265.66;1724932;83;25587;-58
2023/01/22 01:44:15;;;;;;;36.88;18.23;;;;;;;1.11;100.00;101263.52;1724762;83;25620;-58
2023/01/22 01:47:04;;;;;;;36.25;16.73;;;;;;;1.09;100.00;101265.07;1724742;83;25633;-59
2023/01/22 01:49:45;;;;;;;37.70;17.32;;;;;;;1.08;100.00;101270.62;1724841;83;27345;-57
2023/01/22 01:52:14;;;;;;;37.60;17.50;;;;;;;1.08;100.00;101272.76;1724686;83;25585;-57
2023/01/22 01:54:46;;;;;;;37.33;17.67;;;;;;;1.07;100.00;101271.64;1712169;83;25443;-57
2023/01/22 01:57:21;;;;;;;41.98;17.85;;;;;;;1.06;100.00;101270.84;1760780;81;26320;-57
2023/01/22 01:59:53;;;;;;;37.00;18.20;;;;;;;1.04;100.00;101272.91;1724844;82;25544;-57
2023/01/22 02:02:22;;;;;;;36.77;17.82;;;;;;;1.05;100.00;101284.37;1724740;83;27348;-58
2023/01/22 02:04:51;;;;;;;40.05;18.12;;;;;;;1.04;100.00;101283.58;1724838;83;25563;-58
2023/01/22 02:07:19;;;;;;;36.35;17.70;;;;;;;1.05;100.00;101287.05;1724911;83;29739;-58
2023/01/22 02:09:47;;;;;;;38.02;19.10;;;;;;;1.05;100.00;101287.84;1724725;83;25612;-57
2023/01/22 02:12:15;;;;;;;39.70;18.15;;;;;;;1.05;100.00;101289.18;1724889;83;25607;-58
2023/01/22 02:14:45;;;;;;;36.35;17.30;;;;;;;1.06;100.00;101296.16;1724819;83;27390;-57
2023/01/22 02:17:20;;;;;;;41.98;18.80;;;;;;;1.05;100.00;101291.84;1712012;83;25636;-55
2023/01/22 02:19:48;;;;;;;38.63;19.02;;;;;;;1.04;100.00;101290.73;1724789;83;25537;-58
2023/01/22 02:22:28;;;;;;;36.75;17.50;;;;;;;1.03;100.00;101296.59;1724699;83;25615;-58
2023/01/22 02:24:57;;;;;;;34.03;17.32;;;;;;;1.03;100.00;101297.92;1724612;82;25459;-57
2023/01/22 02:27:25;;;;;;;35.05;17.75;;;;;;;1.02;100.00;101282.98;1724723;83;27389;-58
2023/01/22 02:29:51;;;;;;;40.35;17.80;;;;;;;1.03;100.00;101288.59;1712059;83;25683;-59
2023/01/22 02:32:19;;;;;;;38.53;18.23;;;;;;;1.04;100.00;101281.41;1760893;81;25695;-58
2023/01/22 02:34:45;;;;;;;34.25;16.75;;;;;;;1.04;100.00;101283.58;1724939;83;26343;-58
2023/01/22 02:37:13;;;;;;;34.03;16.87;;;;;;;1.05;100.00;101283.85;1725004;83;32783;-58
2023/01/22 02:39:39;;;;;;;35.80;16.93;;;;;;;1.05;100.00;101289.18;1724938;82;28033;-58
2023/01/22 02:42:08;;;;;;;31.75;15.58;;;;;;;1.07;100.00;101290.30;1724816;83;25389;-59
2023/01/22 02:44:34;;;;;;;32.50;16.87;;;;;;;1.07;100.00;101297.80;1725087;83;25644;-59
2023/01/22 02:47:00;;;;;;;37.08;17.55;;;;;;;1.07;100.00;101298.29;1724852;83;25682;-58
2023/01/22 02:49:27;;;;;;;36.00;17.30;;;;;;;1.07;100.00;101303.12;1724992;83;25647;-59
2023/01/22 02:51:55;;;;;;;32.53;17.10;;;;;;;1.07;100.00;101311.12;1711868;83;27472;-59
2023/01/22 02:54:21;;;;;;;35.55;17.07;;;;;;;1.08;100.00;101308.73;1760780;81;25448;-59
2023/01/22 02:56:47;;;;;;;33.60;15.90;;;;;;;1.06;100.00;101306.81;1724881;82;25597;-59
2023/01/22 02:59:15;;;;;;;40.85;18.10;;;;;;;1.07;100.00;101315.61;1736512;82;27858;-59
2023/01/22 03:01:41;;;;;;;39.55;17.50;;;;;;;1.07;100.00;101309.78;1724888;83;25552;-59
2023/01/22 03:04:10;;;;;;;37.67;17.30;;;;;;;1.06;100.00;101312.14;1736863;82;27280;-59
2023/01/22 03:06:42;;;;;;;37.25;17.37;;;;;;;1.06;100.00;101309.47;1724908;83;25437;-57
2023/01/22 03:09:13;;;;;;;35.63;17.42;;;;;;;1.07;100.00;101312.95;1724889;83;25551;-59
2023/01/22 03:11:44;;;;;;;36.70;17.05;;;;;;;1.07;100.00;101304.45;1724897;83;26179;-60
2023/01/22 03:22:30;;;;;;;32.13;17.00;;;;;;;1.06;100.00;101329.46;1724897;83;25545;-58
2023/01/22 03:24:59;;;;;;;35.65;17.98;;;;;;;1.05;100.00;101334.48;1724863;82;26421;-58
2023/01/22 03:27:28;;;;;;;32.33;16.55;;;;;;;1.05;100.00;101331.81;1724521;82;25543;-58
2023/01/22 03:29:55;;;;;;;32.55;16.40;;;;;;;1.04;100.00;101341.36;1724922;83;27605;-58
2023/01/22 03:32:25;;;;;;;35.38;17.57;;;;;;;1.02;100.00;101344.27;1724864;83;25694;-58
2023/01/22 03:34:52;;;;;;;34.45;16.32;;;;;;;1.00;100.00;101339.66;1712181;83;25420;-58
2023/01/22 03:37:21;;;;;;;36.53;17.92;;;;;;;0.99;100.00;101345.20;1760750;81;25709;-58
2023/01/22 03:39:47;;;;;;;38.92;18.75;;;;;;;0.99;100.00;101353.19;1724860;82;25607;-58
2023/01/22 03:42:13;;;;;;;36.88;18.17;;;;;;;0.98;100.00;101352.38;1724911;83;27395;-57
2023/01/22 03:44:39;;;;;;;39.63;18.73;;;;;;;0.99;100.00;101357.19;1724744;83;27227;-57
2023/01/22 03:47:05;;;;;;;34.83;17.73;;;;;;;0.99;100.00;101353.19;1722504;83;28787;-57
2023/01/22 03:49:31;;;;;;;35.10;17.92;;;;;;;1.00;100.00;101363.63;1726890;82;35248;-57
2023/01/22 03:51:57;;;;;;;37.10;18.05;;;;;;;0.99;100.00;101359.36;1726990;82;25588;-58
2023/01/22 03:54:24;;;;;;;36.50;17.70;;;;;;;1.00;100.00;101356.16;1726907;83;27305;-58
2023/01/22 03:56:52;;;;;;;37.03;18.48;;;;;;;0.99;100.00;101351.36;1726867;83;25728;-58
2023/01/22 03:59:18;;;;;;;33.80;17.57;;;;;;;0.99;100.00;101351.86;1726948;82;25616;-57
2023/01/22 04:01:45;;;;;;;32.08;17.70;;;;;;;0.99;100.00;101351.86;1709743;83;26240;-57
2023/01/22 04:04:13;;;;;;;36.25;18.05;;;;;;;0.97;100.00;101357.44;1709998;83;25426;-58
2023/01/22 04:06:39;;;;;;;35.60;16.62;;;;;;;0.96;100.00;101361.64;1727027;83;27243;-57
2023/01/22 04:09:05;;;;;;;35.90;17.35;;;;;;;0.94;100.00;101367.19;1726937;83;25759;-57
2023/01/22 04:11:31;;;;;;;32.70;15.88;;;;;;;0.95;100.00;101375.98;1726887;82;25644;-58
2023/01/22 04:13:58;;;;;;;31.33;16.55;;;;;;;0.94;100.00;101376.52;1726869;82;25603;-58
2023/01/22 04:16:24;;;;;;;31.93;17.35;;;;;;;0.93;100.00;101373.54;1726980;82;25410;-57
2023/01/22 04:18:50;;;;;;;33.23;16.67;;;;;;;0.92;100.00;101378.59;1726950;82;27280;-57
2023/01/22 04:21:16;;;;;;;31.12;16.67;;;;;;;0.92;100.00;101387.91;1709635;83;25749;-57
2023/01/22 04:23:42;;;;;;;35.95;17.70;;;;;;;0.91;100.00;101388.41;1726937;82;25666;-58
2023/01/22 04:26:11;;;;;;;37.48;17.57;;;;;;;0.92;100.00;101388.72;1709932;83;25615;-58
2023/01/22 04:28:37;;;;;;;35.23;18.15;;;;;;;0.93;100.00;101391.66;1727095;83;25646;-58
2023/01/22 04:31:07;;;;;;;31.93;16.55;;;;;;;0.92;100.00;101378.06;1726942;83;27225;-57
2023/01/22 04:33:53;;;;;;;35.98;17.57;;;;;;;0.93;100.00;101385.53;1725046;82;25736;-58
2023/01/22 04:36:20;;;;;;;38.28;16.82;;;;;;;0.92;100.00;101389.24;1725081;83;25660;-57
2023/01/22 04:38:46;;;;;;;35.52;17.30;;;;;;;0.92;100.00;101382.58;1725113;83;25653;-57
2023/01/22 04:41:12;;;;;;;35.20;17.87;;;;;;;0.92;100.00;101387.91;1725183;83;25604;-56
2023/01/22 04:43:38;;;;;;;34.58;17.17;;;;;;;0.90;100.00;101386.80;1725115;83;27359;-56
2023/01/22 04:46:06;;;;;;;34.67;18.00;;;;;;;0.91;100.00;101387.07;1725056;83;27800;-56
2023/01/22 04:48:34;;;;;;;34.20;17.27;;;;;;;0.90;100.00;101394.78;1700888;83;25582;-57
2023/01/22 04:51:02;;;;;;;31.70;16.62;;;;;;;0.89;100.00;101397.66;1725129;83;25980;-56
2023/01/22 04:53:28;;;;;;;34.55;16.48;;;;;;;0.89;100.00;101406.98;1725133;83;25437;-55
2023/01/22 04:55:55;;;;;;;37.48;18.57;;;;;;;0.87;100.00;101406.36;1725107;83;27387;-55
2023/01/22 04:58:21;;;;;;;34.92;17.65;;;;;;;0.86;100.00;101402.09;1744450;81;25380;-56
2023/01/22 05:00:47;;;;;;;33.93;16.90;;;;;;;0.86;100.00;101412.22;1758617;81;27286;-55
2023/01/22 05:03:15;;;;;;;34.23;16.73;;;;;;;0.85;100.00;101411.94;1758587;81;25648;-56
2023/01/22 05:05:41;;;;;;;34.25;16.70;;;;;;;0.85;100.00;101411.09;1758753;81;25472;-56
2023/01/22 05:08:09;;;;;;;39.30;18.27;;;;;;;0.84;100.00;101408.95;1758620;81;27394;-57
2023/01/22 05:10:35;;;;;;;35.45;16.30;;;;;;;0.83;100.00;101420.63;1758522;81;25561;-56
2023/01/22 05:13:05;;;;;;;35.17;17.30;;;;;;;0.83;100.00;101414.50;1758655;81;25596;-56
2023/01/22 05:15:33;;;;;;;34.53;17.25;;;;;;;0.82;100.00;101419.52;1730633;81;25888;-56
2023/01/22 05:18:01;;;;;;;31.47;16.63;;;;;;;0.83;100.00;101418.50;1758948;81;25631;-56
2023/01/22 05:20:27;;;;;;;32.67;16.07;;;;;;;0.83;100.00;101419.83;1730760;81;28173;-55
2023/01/22 05:22:53;;;;;;;34.53;17.27;;;;;;;0.82;100.00;101415.03;1758558;81;31260;-55
2023/01/22 05:25:20;;;;;;;33.75;16.80;;;;;;;0.81;100.00;101417.91;1758662;81;25570;-54
2023/01/22 05:27:46;;;;;;;35.00;17.90;;;;;;;0.80;100.00;101421.09;1758582;81;25646;-53
2023/01/22 05:30:16;;;;;;;33.53;16.12;;;;;;;0.80;100.00;101426.91;1758620;81;25452;-56
2023/01/22 05:32:43;;;;;;;35.70;17.77;;;;;;;0.79;100.00;101419.45;1758530;81;28019;-56
2023/01/22 05:35:09;;;;;;;36.70;17.67;;;;;;;0.79;100.00;101423.45;1730614;81;25450;-53
2023/01/22 05:37:35;;;;;;;32.98;16.52;;;;;;;0.81;100.00;101423.23;1758581;81;25554;-54
2023/01/22 05:40:05;;;;;;;32.23;15.32;;;;;;;0.81;100.00;101428.55;1758502;81;25614;-56
2023/01/22 05:42:31;;;;;;;31.73;17.10;;;;;;;0.81;100.00;101429.36;1758762;81;25374;-56
2023/01/22 05:44:57;;;;;;;33.92;16.70;;;;;;;0.82;100.00;101430.17;1758560;81;27378;-56
2023/01/22 05:47:23;;;;;;;30.65;15.70;;;;;;;0.80;100.00;101431.75;1758503;81;25448;-56
2023/01/22 05:49:49;;;;;;;31.20;16.62;;;;;;;0.80;100.00;101436.23;1758543;81;25386;-56
2023/01/22 05:52:16;;;;;;;33.50;15.85;;;;;;;0.78;100.00;101436.45;1758562;81;34762;-56
2023/01/22 05:54:41;;;;;;;32.00;16.70;;;;;;;0.77;100.00;101436.66;1758605;81;25392;-56
2023/01/22 05:57:08;;;;;;;29.23;15.50;;;;;;;0.77;100.00;101440.66;1730180;81;27444;-55
2023/01/22 05:59:36;;;;;;;33.40;16.17;;;;;;;0.76;100.00;101441.19;1758485;81;25563;-56
2023/01/22 06:02:04;;;;;;;32.17;16.73;;;;;;;0.77;100.00;101445.48;1758583;81;25544;-56
2023/01/22 06:04:30;;;;;;;30.88;16.07;;;;;;;0.77;100.00;101452.64;1758542;81;25622;-54
2023/01/22 06:06:56;;;;;;;30.82;16.27;;;;;;;0.77;100.00;101455.30;1758776;81;25400;-56
2023/01/22 06:09:25;;;;;;;32.17;15.80;;;;;;;0.76;100.00;101455.02;1758744;81;28075;-56
2023/01/22 06:11:52;;;;;;;30.15;16.17;;;;;;;0.76;100.00;101457.16;1758814;81;25542;-56
2023/01/22 06:14:19;;;;;;;30.48;15.48;;;;;;;0.76;100.00;101461.16;1758740;81;25531;-57
2023/01/22 06:16:45;;;;;;;31.57;15.78;;;;;;;0.77;100.00;101459.30;1758734;81;25619;-56
2023/01/22 06:19:11;;;;;;;31.62;16.17;;;;;;;0.78;100.00;101466.27;1758772;81;32371;-56
2023/01/22 06:21:42;;;;;;;30.95;16.75;;;;;;;0.77;100.00;101457.97;1758677;81;29650;-54
2023/01/22 06:24:11;;;;;;;35.63;16.65;;;;;;;0.77;100.00;101465.96;1758695;81;25403;-56
2023/01/22 06:26:39;;;;;;;30.48;16.35;;;;;;;0.78;100.00;101469.74;1731002;81;25606;-56
2023/01/22 06:29:08;;;;;;;28.98;15.20;;;;;;;0.78;100.00;101475.07;1758712;81;25787;-54
2023/01/22 06:31:34;;;;;;;29.98;16.32;;;;;;;0.77;100.00;101473.45;1758933;81;25616;-56
2023/01/22 06:34:04;;;;;;;27.75;15.38;;;;;;;0.78;100.00;101483.59;1757517;81;28036;-57
2023/01/22 06:36:29;;;;;;;30.00;16.55;;;;;;;0.77;100.00;101482.78;1756923;81;25509;-53
2023/01/22 06:38:56;;;;;;;27.52;15.88;;;;;;;0.77;100.00;101482.78;1757359;81;25509;-57
2023/01/22 06:41:24;;;;;;;31.27;16.12;;;;;;;0.79;100.00;101482.05;1763487;81;25669;-57
2023/01/22 06:43:50;;;;;;;26.87;15.37;;;;;;;0.79;100.00;101475.38;1763870;81;25646;-57
2023/01/22 06:46:17;;;;;;;25.25;14.53;;;;;;;0.88;100.00;101493.25;1786011;80;27329;-55
2023/01/22 06:48:44;;;;;;;26.70;14.53;;;;;;;0.80;100.00;101482.36;1785993;80;25563;-55
2023/01/22 06:51:13;;;;;;;28.38;15.72;;;;;;;0.80;100.00;101491.67;1786101;80;25410;-56
2023/01/22 06:53:39;;;;;;;25.23;14.60;;;;;;;0.79;100.00;101495.36;1786003;80;25614;-53
2023/01/22 06:56:08;;;;;;;30.77;16.35;;;;;;;0.81;100.00;101503.95;1785989;80;25521;-53
2023/01/22 06:58:34;;;;;;;24.98;14.58;;;;;;;0.81;100.00;101503.14;1786191;80;27341;-53
2023/01/22 07:01:06;;;;;;;27.50;16.37;;;;;;;0.81;100.00;101508.47;1785898;80;25518;-56
2023/01/22 07:03:33;;;;;;;28.57;15.63;;;;;;;0.81;100.00;101509.80;1786100;80;25441;-54
2023/01/22 07:06:03;;;;;;;26.05;14.47;;;;;;;0.81;100.00;101509.80;1785999;80;25607;-53
2023/01/22 07:08:33;;;;;;;30.95;16.15;;;;;;;0.79;100.00;101506.54;1786071;80;25580;-53
2023/01/22 07:11:02;;;;;;;28.85;15.75;;;;;;;0.82;100.00;101520.73;1786030;80;27316;-54
2023/01/22 07:13:28;;;;;;;26.82;14.70;;;;;;;0.82;100.00;101523.41;1761475;80;30139;-55
2023/01/22 07:15:58;;;;;;;27.87;15.63;;;;;;;0.84;100.00;101537.34;1785989;80;25605;-56
2023/01/22 07:18:24;;;;;;;27.77;15.75;;;;;;;0.82;100.00;101528.23;1785795;80;26595;-53
2023/01/22 07:20:51;;;;;;;27.70;15.45;;;;;;;0.83;100.00;101535.70;1786068;80;25482;-56
2023/01/22 07:23:20;;;;;;;29.63;15.88;;;;;;;0.84;100.00;101540.02;1786032;80;27302;-55
2023/01/22 07:25:46;;;;;;;29.65;15.78;;;;;;;0.84;100.00;101545.34;1786086;80;25454;-55
2023/01/22 07:28:15;;;;;;;28.83;16.42;;;;;;;0.85;100.00;101547.80;1785998;80;25639;-54
2023/01/22 07:30:45;;;;;;;28.85;16.10;;;;;;;0.86;100.00;101544.61;1786110;80;27832;-56
2023/01/22 07:33:14;;;;;;;29.85;16.40;;;;;;;0.86;100.00;101537.95;1752659;81;25457;-55
2023/01/22 07:35:41;;;;;;;29.07;15.48;;;;;;;0.86;100.00;101547.27;1756926;80;28125;-53
2023/01/22 07:38:09;;;;;;;28.20;15.45;;;;;;;0.86;100.00;101553.41;1757697;81;25384;-54
2023/01/22 07:40:39;;;;;;;33.05;16.80;;;;;;;0.86;100.00;101549.94;1757899;81;25630;-54
2023/01/22 07:43:07;;;;;;;32.50;16.62;;;;;;;0.87;100.00;101551.05;1757950;81;25668;-56
2023/01/22 07:45:35;;;;;;;29.02;16.12;;;;;;;0.89;100.00;101549.52;1766535;81;25535;-56
2023/01/22 07:48:01;;;;;;;28.75;16.85;;;;;;;0.91;100.00;101560.77;1766517;81;27334;-54
2023/01/22 07:50:31;;;;;;;29.55;16.42;;;;;;;0.93;100.00;101559.51;1785362;80;25566;-56
2023/01/22 07:52:59;;;;;;;31.30;18.27;;;;;;;0.98;100.00;101566.06;1757852;81;25562;-53
2023/01/22 07:55:25;;;;;;;41.92;21.30;;;;;;;0.96;100.00;101569.46;1757657;81;27911;-56
2023/01/22 07:58:04;;;;;;;31.82;16.30;;;;;;;0.98;100.00;101572.72;1757873;81;25464;-56
2023/01/22 08:00:34;;;;;;;37.67;17.62;;;;;;;0.96;100.00;101578.27;1730102;81;26457;-55
2023/01/22 08:03:06;;;;;;;32.08;16.85;;;;;;;0.97;100.00;101568.41;1757867;81;25385;-54
2023/01/22 08:05:34;;;;;;;32.60;16.45;;;;;;;0.99;100.00;101573.84;1730037;81;25660;-57
2023/01/22 08:08:00;;;;;;;32.83;16.45;;;;;;;1.00;100.00;101578.65;1757792;81;25623;-56
2023/01/22 08:10:28;;;;;;;33.70;16.62;;;;;;;1.01;100.00;101586.95;1757800;81;25603;-53
2023/01/22 08:12:54;;;;;;;34.03;17.25;;;;;;;1.04;100.00;101582.51;1757862;81;29501;-54
2023/01/22 08:15:26;;;;;;;33.63;16.50;;;;;;;1.03;100.00;101587.03;1757752;81;25568;-55
2023/01/22 08:17:53;;;;;;;34.33;17.62;;;;;;;1.05;100.00;101579.63;1714922;83;25599;-56
2023/01/22 08:20:22;;;;;;;33.75;17.80;;;;;;;1.04;100.00;101582.02;1725769;81;25877;-56
2023/01/22 08:22:50;;;;;;;34.03;16.77;;;;;;;1.08;100.00;101586.40;1714953;83;25656;-53
2023/01/22 08:25:17;;;;;;;32.88;16.97;;;;;;;1.09;100.00;101587.52;1724410;83;27362;-53
2023/01/22 08:27:43;;;;;;;31.30;17.13;;;;;;;1.10;100.00;101585.66;1724333;83;31242;-55
2023/01/22 08:30:12;;;;;;;28.35;16.00;;;;;;;1.10;100.00;101581.14;1724379;83;25649;-52
2023/01/22 08:32:43;;;;;;;31.97;16.75;;;;;;;1.10;100.00;101586.99;1699987;82;25963;-54
2023/01/22 08:35:13;;;;;;;32.55;17.23;;;;;;;1.08;100.00;101592.53;1737783;81;25440;-55
2023/01/22 08:37:42;;;;;;;33.50;17.42;;;;;;;1.08;100.00;101595.20;1738627;82;27913;-56
2023/01/22 08:40:13;;;;;;;;;;;;;;;1.11;100.00;101597.97;1741025;82;25430;-53
2023/01/22 08:42:45;;;;;;;33.50;17.30;;;;;;;1.13;100.00;101605.23;1713844;82;25541;-54
2023/01/22 08:45:11;;;;;;;35.00;17.25;;;;;;;1.16;100.00;101609.30;1707423;82;25805;-56
2023/01/22 08:47:38;;;;;;;31.50;17.27;;;;;;;1.17;100.00;101601.09;1713082;82;25561;-56
2023/01/22 08:50:09;;;;;;;33.50;19.20;;;;;;;1.18;100.00;101613.40;1738379;82;27320;-56
2023/01/22 08:52:36;;;;;;;38.80;19.65;;;;;;;1.20;100.00;101606.53;1713813;82;25606;-53
2023/01/22 08:55:08;;;;;;;34.33;18.02;;;;;;;1.23;100.00;101611.44;1738349;82;25672;-52
2023/01/22 08:57:36;;;;;;;41.85;21.97;;;;;;;1.25;100.00;101607.52;1738500;82;25607;-52
2023/01/22 09:00:08;;;;;;;44.42;21.20;;;;;;;1.28;100.00;101608.42;1738481;82;25699;-53
2023/01/22 09:02:35;;;;;;;35.48;19.10;;;;;;;1.27;100.00;101607.30;1714000;82;27312;-56
2023/01/22 09:05:01;;;;;;;35.45;18.42;;;;;;;1.29;100.00;101610.06;1712557;82;25666;-56
2023/01/22 09:07:27;;;;;;;32.67;18.05;;;;;;;1.30;100.00;101617.02;1738324;82;25661;-53
2023/01/22 09:09:53;;;;;;;35.17;18.20;;;;;;;1.32;100.00;101620.80;1738357;82;25563;-53
2023/01/22 09:12:19;;;;;;;31.77;17.27;;;;;;;1.33;100.00;101618.95;1738384;82;25466;-56
2023/01/22 09:14:46;;;;;;;32.50;17.55;;;;;;;1.33;100.00;101626.94;1738734;82;27371;-51
2023/01/22 09:17:12;;;;;;;33.45;18.35;;;;;;;1.32;100.00;101628.80;1764164;81;25558;-52
2023/01/22 09:19:38;;;;;;;32.60;16.77;;;;;;;1.32;100.00;101637.32;1764253;81;25482;-55
2023/01/22 09:22:06;;;;;;;32.85;18.40;;;;;;;1.33;100.00;101633.61;1764191;81;25719;-54
2023/01/22 09:24:34;;;;;;;39.13;20.90;;;;;;;1.33;100.00;101633.61;1764224;81;25435;-56
2023/01/22 09:27:00;;;;;;;39.03;18.17;;;;;;;1.34;100.00;101638.73;1764186;81;27275;-52
2023/01/22 09:29:27;;;;;;;35.33;19.45;;;;;;;1.37;100.00;101640.16;1764171;81;25505;-55
2023/01/22 09:31:53;;;;;;;32.93;17.00;;;;;;;1.35;100.00;101640.37;1764192;81;25682;-53
2023/01/22 09:34:21;;;;;;;31.65;17.57;;;;;;;1.36;100.00;101644.66;1732304;81;25610;-55
2023/01/22 09:36:47;;;;;;;33.35;16.90;;;;;;;1.36;100.00;101649.98;1717075;83;25622;-54
2023/01/22 09:39:15;;;;;;;35.50;17.67;;;;;;;1.34;100.00;101641.39;1729689;82;27331;-54
2023/01/22 09:41:47;;;;;;;33.25;17.02;;;;;;;1.36;100.00;101646.52;1729596;82;25728;-54
2023/01/22 09:44:28;;;;;;;37.08;17.92;;;;;;;1.37;100.00;101638.83;1729746;82;25571;-54
2023/01/22 09:47:12;;;;;;;35.78;19.25;;;;;;;1.39;100.00;101637.56;1729480;82;25624;-54
2023/01/22 09:49:59;;;;;;;38.85;19.90;;;;;;;1.40;100.00;101646.41;1729811;83;25534;-55
2023/01/22 09:52:31;;;;;;;35.08;17.23;;;;;;;1.42;100.00;101643.00;1729713;82;27385;-51
2023/01/22 09:55:01;;;;;;;33.95;17.92;;;;;;;1.43;100.00;101641.45;1729633;82;25735;-54
2023/01/22 09:57:30;;;;;;;32.38;17.35;;;;;;;1.46;100.00;101653.53;1729611;83;25373;-51
2023/01/22 10:00:00;;;;;;;32.42;17.07;;;;;;;1.45;100.00;101652.72;1729718;82;25625;-50
2023/01/22 10:02:56;;;;;;;30.92;16.35;;;;;;;1.45;100.00;101643.91;1729825;83;25717;-53
2023/01/22 10:05:46;;;;;;;35.20;19.35;;;;;;;1.46;100.00;101646.37;1683567;84;27470;-53
2023/01/22 10:08:23;;;;;;;36.70;21.62;;;;;;;1.48;100.00;101650.96;1683194;85;25559;-53
2023/01/22 10:10:51;;;;;;;44.67;26.40;;;;;;;1.48;100.00;101656.30;1683365;85;25588;-51
2023/01/22 10:13:34;;;;;;;37.58;20.95;;;;;;;1.48;100.00;101660.30;1683289;85;25768;-53
2023/01/22 10:16:05;;;;;;;37.42;18.92;;;;;;;1.49;100.00;101663.25;1683365;85;25627;-53
2023/01/22 10:18:47;;;;;;;35.73;17.80;;;;;;;1.52;100.00;101652.68;1683356;85;27337;-50
2023/01/22 10:21:24;;;;;;;29.80;15.83;;;;;;;1.55;100.00;101651.42;1681930;85;25725;-52
2023/01/22 10:23:57;;;;;;;32.67;17.30;;;;;;;1.56;100.00;101653.06;1682527;85;25775;-52
2023/01/22 10:26:41;;;;;;;33.60;17.15;;;;;;;1.54;100.00;101649.28;1683355;85;25794;-53
2023/01/22 10:29:15;;;;;;;35.40;17.82;;;;;;;1.56;100.00;101650.40;1683336;85;25595;-53
2023/01/22 10:31:53;;;;;;;33.45;16.77;;;;;;;1.56;100.00;101651.20;1681840;85;27348;-50
2023/01/22 10:34:29;;;;;;;29.85;16.32;;;;;;;1.55;100.00;101640.75;1696824;83;25528;-52
2023/01/22 10:37:01;;;;;;;29.23;16.27;;;;;;;1.58;100.00;101645.66;1668048;86;25569;-50
2023/01/22 10:39:46;;;;;;;31.40;17.92;;;;;;;1.58;100.00;101646.47;1712701;83;25687;-49
2023/01/22 10:42:25;;;;;;;32.00;17.02;;;;;;;1.62;100.00;101643.69;1702070;84;25593;-51
2023/01/22 10:45:11;;;;;;;40.55;22.22;;;;;;;1.60;100.00;101647.09;1726220;82;27342;-50
2023/01/22 10:47:38;;;;;;;31.77;15.90;;;;;;;1.60;100.00;101642.25;1756694;81;25618;-52
2023/01/22 10:50:14;;;;;;;27.58;15.28;;;;;;;1.61;100.00;101642.56;1726338;83;25511;-50
2023/01/22 10:52:53;;;;;;;33.45;17.90;;;;;;;1.61;100.00;101636.70;1755174;81;25540;-50
2023/01/22 10:55:26;;;;;;;32.15;17.25;;;;;;;1.64;100.00;101641.61;1726444;83;33140;-50
2023/01/22 10:57:57;;;;;;;55.67;29.55;;;;;;;1.66;100.00;101641.41;1758165;81;27684;-50
2023/01/22 11:00:39;;;;;;;48.92;25.77;;;;;;;1.66;100.00;101635.55;1701036;83;25728;-50
2023/01/22 11:03:20;;;;;;;40.12;19.37;;;;;;;1.67;100.00;101639.05;1758093;81;25436;-51
2023/01/22 11:05:51;;;;;;;38.33;19.52;;;;;;;1.70;100.00;101633.78;1726455;83;25656;-51
2023/01/22 11:08:22;;;;;;;41.75;21.17;;;;;;;1.71;100.00;101639.42;1758292;81;25405;-49
2023/01/22 11:10:57;;;;;;;40.15;20.15;;;;;;;1.74;100.00;101638.47;1726448;83;29485;-50
2023/01/22 11:13:43;;;;;;;37.75;18.87;;;;;;;1.71;100.00;101638.09;1758085;81;25388;-48
2023/01/22 11:16:22;;;;;;;35.85;18.87;;;;;;;1.71;100.00;101637.57;1725382;83;25457;-50
2023/01/22 11:19:00;;;;;;;35.98;17.52;;;;;;;1.72;100.00;101631.21;1758263;81;26238;-50
2023/01/22 11:21:32;;;;;;;31.20;16.85;;;;;;;1.71;100.00;101634.09;1726611;83;25606;-50
2023/01/22 11:24:04;;;;;;;33.28;17.32;;;;;;;1.71;100.00;101637.57;1758234;81;27927;-51
2023/01/22 11:27:04;;;;;;;36.15;17.87;;;;;;;1.73;100.00;101644.83;1726446;83;25402;-49
2023/01/22 11:30:03;;;;;;;95.87;43.83;;;;;;;1.71;100.00;101646.91;1758165;81;25445;-48